Terminal Aerodrome Forecast
Issued by NWS

Home | Current Version | Previous Version | Text Only | Print | Product List | Glossary On
Versions: 1 2 3 4 5 6 7 8 9 10 11 12 13 14
710
FTUS45 KTFX 091132
TAFCTB
TAF
KCTB 091132Z 0912/1012 VRB03KT P6SM OVC028
     FM091500 04004KT P6SM -SN OVC030
     FM091800 13006KT P6SM VCSH OVC035
     FM100300 12006KT P6SM BKN035 PROB30 1003/1006 4SM -SN OVC007
     FM100600 12006KT 4SM -SN OVC015
     FM100900 10006KT 4SM -SN OVC010 PROB30 1009/1012 2SM -SN
      OVC003=

USA.gov is the U.S. government's official web portal to all federal, state and local government web resources and services.